sensor_id;sensor_type;location;lat;lon;timestamp;temperature;humidity
53653;DHT22;39553;52.954;5.932;2023-03-01T00:01:19;-0.50;99.90
53653;DHT22;39553;52.954;5.932;2023-03-01T00:03:46;1.30;99.90
53653;DHT22;39553;52.954;5.932;2023-03-01T00:06:12;-0.60;99.90
53653;DHT22;39553;52.954;5.932;2023-03-01T00:08:38;-0.60;99.90
53653;DHT22;39553;52.954;5.932;2023-03-01T00:11:11;-0.90;99.90
53653;DHT22;39553;52.954;5.932;2023-03-01T00:13:37;-0.80;99.90
53653;DHT22;39553;52.954;5.932;2023-03-01T00:16:07;0.80;99.90
53653;DHT22;39553;52.954;5.932;2023-03-01T00:18:33;0.70;99.90
53653;DHT22;39553;52.954;5.932;2023-03-01T00:21:01;0.40;99.90
53653;DHT22;39553;52.954;5.932;2023-03-01T00:23:27;-0.50;99.90
53653;DHT22;39553;52.954;5.932;2023-03-01T00:25:53;-0.80;99.90
53653;DHT22;39553;52.954;5.932;2023-03-01T00:28:19;1.00;99.90
53653;DHT22;39553;52.954;5.932;2023-03-01T00:30:45;0.90;99.90
53653;DHT22;39553;52.954;5.932;2023-03-01T00:33:12;-0.90;99.90
53653;DHT22;39553;52.954;5.932;2023-03-01T00:35:39;1.60;99.90
53653;DHT22;39553;52.954;5.932;2023-03-01T00:38:08;-0.10;99.90
53653;DHT22;39553;52.954;5.932;2023-03-01T00:40:35;0.10;99.90
53653;DHT22;39553;52.954;5.932;2023-03-01T00:43:04;-0.90;99.90
53653;DHT22;39553;52.954;5.932;2023-03-01T00:45:30;0.70;99.90
53653;DHT22;39553;52.954;5.932;2023-03-01T00:47:59;0.60;99.90
53653;DHT22;39553;52.954;5.932;2023-03-01T00:50:25;1.40;99.90
53653;DHT22;39553;52.954;5.932;2023-03-01T00:52:55;-1.10;99.90
53653;DHT22;39553;52.954;5.932;2023-03-01T00:55:21;0.50;99.90
53653;DHT22;39553;52.954;5.932;2023-03-01T00:57:48;-1.20;99.90
53653;DHT22;39553;52.954;5.932;2023-03-01T01:00:13;0.80;99.90
53653;DHT22;39553;52.954;5.932;2023-03-01T01:02:39;0.70;99.90
53653;DHT22;39553;52.954;5.932;2023-03-01T01:05:05;-1.20;99.90
53653;DHT22;39553;52.954;5.932;2023-03-01T01:07:31;-1.30;99.90
53653;DHT22;39553;52.954;5.932;2023-03-01T01:09:57;-1.60;99.90
53653;DHT22;39553;52.954;5.932;2023-03-01T01:12:22;-1.40;99.90
53653;DHT22;39553;52.954;5.932;2023-03-01T01:14:48;0.00;99.90
53653;DHT22;39553;52.954;5.932;2023-03-01T01:17:14;0.80;99.90
53653;DHT22;39553;52.954;5.932;2023-03-01T01:19:45;0.00;99.90
53653;DHT22;39553;52.954;5.932;2023-03-01T01:22:11;0.10;99.90
53653;DHT22;39553;52.954;5.932;2023-03-01T01:24:37;-1.90;99.90
53653;DHT22;39553;52.954;5.932;2023-03-01T01:27:04;-1.60;99.90
53653;DHT22;39553;52.954;5.932;2023-03-01T01:29:30;-1.70;99.90
53653;DHT22;39553;52.954;5.932;2023-03-01T01:31:56;0.20;99.90
53653;DHT22;39553;52.954;5.932;2023-03-01T01:34:21;-1.80;99.90
53653;DHT22;39553;52.954;5.932;2023-03-01T01:36:49;0.10;99.90
53653;DHT22;39553;52.954;5.932;2023-03-01T01:39:15;-1.80;99.90
53653;DHT22;39553;52.954;5.932;2023-03-01T01:41:42;-2.00;99.90
53653;DHT22;39553;52.954;5.932;2023-03-01T01:46:52;-1.80;99.90
53653;DHT22;39553;52.954;5.932;2023-03-01T01:52:11;-1.80;99.90
53653;DHT22;39553;52.954;5.932;2023-03-01T01:57:55;-1.80;99.90
53653;DHT22;39553;52.954;5.932;2023-03-01T02:00:24;-1.90;99.90
53653;DHT22;39553;52.954;5.932;2023-03-01T02:02:55;-1.00;99.90
53653;DHT22;39553;52.954;5.932;2023-03-01T02:08:28;-1.90;99.90
53653;DHT22;39553;52.954;5.932;2023-03-01T02:10:57;-0.40;99.90
53653;DHT22;39553;52.954;5.932;2023-03-01T02:13:26;-1.70;99.90
53653;DHT22;39553;52.954;5.932;2023-03-01T02:15:52;-2.00;99.90
53653;DHT22;39553;52.954;5.932;2023-03-01T02:18:21;-0.70;99.90
53653;DHT22;39553;52.954;5.932;2023-03-01T02:23:44;-1.90;99.90
53653;DHT22;39553;52.954;5.932;2023-03-01T02:26:36;-2.30;99.90
53653;DHT22;39553;52.954;5.932;2023-03-01T02:29:04;-2.00;99.90
53653;DHT22;39553;52.954;5.932;2023-03-01T02:31:31;-2.30;99.90
53653;DHT22;39553;52.954;5.932;2023-03-01T02:34:19;-2.50;99.90
53653;DHT22;39553;52.954;5.932;2023-03-01T02:36:56;-2.60;99.90
53653;DHT22;39553;52.954;5.932;2023-03-01T02:39:44;0.10;99.90
53653;DHT22;39553;52.954;5.932;2023-03-01T02:42:15;-2.20;99.90
53653;DHT22;39553;52.954;5.932;2023-03-01T02:44:42;0.00;99.90
53653;DHT22;39553;52.954;5.932;2023-03-01T02:47:08;-0.70;99.90
53653;DHT22;39553;52.954;5.932;2023-03-01T02:49:37;-0.80;99.90
53653;DHT22;39553;52.954;5.932;2023-03-01T02:52:40;-2.00;99.90
53653;DHT22;39553;52.954;5.932;2023-03-01T02:55:11;-1.80;99.90
53653;DHT22;39553;52.954;5.932;2023-03-01T02:57:40;-1.90;99.90
53653;DHT22;39553;52.954;5.932;2023-03-01T03:00:18;0.10;99.90
53653;DHT22;39553;52.954;5.932;2023-03-01T03:02:50;-1.90;99.90
53653;DHT22;39553;52.954;5.932;2023-03-01T03:05:22;-3.20;99.90
53653;DHT22;39553;52.954;5.932;2023-03-01T03:07:48;0.20;99.90
53653;DHT22;39553;52.954;5.932;2023-03-01T03:10:18;-1.90;99.90
53653;DHT22;39553;52.954;5.932;2023-03-01T03:12:52;-0.10;99.90
53653;DHT22;39553;52.954;5.932;2023-03-01T03:15:18;-2.20;99.90
53653;DHT22;39553;52.954;5.932;2023-03-01T03:17:46;-1.70;99.90
53653;DHT22;39553;52.954;5.932;2023-03-01T03:20:14;-1.00;99.90
53653;DHT22;39553;52.954;5.932;2023-03-01T03:22:45;-1.90;99.90
53653;DHT22;39553;52.954;5.932;2023-03-01T03:25:12;-1.80;99.90
53653;DHT22;39553;52.954;5.932;2023-03-01T03:27:40;-1.40;99.90
53653;DHT22;39553;52.954;5.932;2023-03-01T03:30:10;-2.30;99.90
53653;DHT22;39553;52.954;5.932;2023-03-01T03:32:42;-1.60;99.90
53653;DHT22;39553;52.954;5.932;2023-03-01T03:35:21;-0.10;99.90
53653;DHT22;39553;52.954;5.932;2023-03-01T03:37:47;-1.70;99.90
53653;DHT22;39553;52.954;5.932;2023-03-01T03:40:38;0.00;99.90
53653;DHT22;39553;52.954;5.932;2023-03-01T03:43:06;-1.60;99.90
53653;DHT22;39553;52.954;5.932;2023-03-01T03:45:33;-1.90;99.90
53653;DHT22;39553;52.954;5.932;2023-03-01T03:47:59;-0.30;99.90
53653;DHT22;39553;52.954;5.932;2023-03-01T03:50:25;-0.50;99.90
53653;DHT22;39553;52.954;5.932;2023-03-01T03:52:51;-0.10;99.90
53653;DHT22;39553;52.954;5.932;2023-03-01T03:55:17;-1.80;99.90
53653;DHT22;39553;52.954;5.932;2023-03-01T03:57:46;-1.60;99.90
53653;DHT22;39553;52.954;5.932;2023-03-01T04:00:20;-1.80;99.90
53653;DHT22;39553;52.954;5.932;2023-03-01T04:02:50;-1.70;99.90
53653;DHT22;39553;52.954;5.932;2023-03-01T04:05:18;0.90;99.90
53653;DHT22;39553;52.954;5.932;2023-03-01T04:07:45;-0.80;99.90
53653;DHT22;39553;52.954;5.932;2023-03-01T04:10:16;-1.90;99.90
53653;DHT22;39553;52.954;5.932;2023-03-01T04:12:42;-0.50;99.90
53653;DHT22;39553;52.954;5.932;2023-03-01T04:15:11;-1.90;99.90
53653;DHT22;39553;52.954;5.932;2023-03-01T04:17:41;0.60;99.90
53653;DHT22;39553;52.954;5.932;2023-03-01T04:20:11;-0.50;99.90
53653;DHT22;39553;52.954;5.932;2023-03-01T04:23:04;-0.80;99.90
53653;DHT22;39553;52.954;5.932;2023-03-01T04:25:52;-1.10;99.90
53653;DHT22;39553;52.954;5.932;2023-03-01T04:28:23;-0.40;99.90
53653;DHT22;39553;52.954;5.932;2023-03-01T04:30:51;-2.00;99.90
53653;DHT22;39553;52.954;5.932;2023-03-01T04:33:17;-1.60;99.90
53653;DHT22;39553;52.954;5.932;2023-03-01T04:35:43;-1.30;99.90
53653;DHT22;39553;52.954;5.932;2023-03-01T04:38:09;-2.50;99.90
53653;DHT22;39553;52.954;5.932;2023-03-01T04:40:35;-2.40;99.90
53653;DHT22;39553;52.954;5.932;2023-03-01T04:43:02;-1.50;99.90
53653;DHT22;39553;52.954;5.932;2023-03-01T04:45:28;-3.50;99.90
53653;DHT22;39553;52.954;5.932;2023-03-01T04:47:53;-0.30;99.90
53653;DHT22;39553;52.954;5.932;2023-03-01T04:50:20;-0.10;99.90
53653;DHT22;39553;52.954;5.932;2023-03-01T04:52:47;-2.80;99.90
53653;DHT22;39553;52.954;5.932;2023-03-01T04:55:13;-1.00;99.90
53653;DHT22;39553;52.954;5.932;2023-03-01T04:57:39;-3.80;99.90
53653;DHT22;39553;52.954;5.932;2023-03-01T05:00:07;-0.30;99.90
53653;DHT22;39553;52.954;5.932;2023-03-01T05:02:47;-2.50;99.90
53653;DHT22;39553;52.954;5.932;2023-03-01T05:05:15;-0.40;99.90
53653;DHT22;39553;52.954;5.932;2023-03-01T05:07:41;-2.00;99.90
53653;DHT22;39553;52.954;5.932;2023-03-01T05:10:07;-3.00;99.90
53653;DHT22;39553;52.954;5.932;2023-03-01T05:12:33;-2.50;99.90
53653;DHT22;39553;52.954;5.932;2023-03-01T05:14:59;-1.90;99.90
53653;DHT22;39553;52.954;5.932;2023-03-01T05:17:25;-0.40;99.90
53653;DHT22;39553;52.954;5.932;2023-03-01T05:19:51;-2.60;99.90
53653;DHT22;39553;52.954;5.932;2023-03-01T05:22:17;-3.40;99.90
53653;DHT22;39553;52.954;5.932;2023-03-01T05:24:42;-2.10;99.90
53653;DHT22;39553;52.954;5.932;2023-03-01T05:27:08;-0.90;99.90
53653;DHT22;39553;52.954;5.932;2023-03-01T05:29:39;-3.50;99.90
53653;DHT22;39553;52.954;5.932;2023-03-01T05:32:05;-2.50;99.90
53653;DHT22;39553;52.954;5.932;2023-03-01T05:34:34;-0.90;99.90
53653;DHT22;39553;52.954;5.932;2023-03-01T05:39:28;-3.30;99.90
53653;DHT22;39553;52.954;5.932;2023-03-01T05:41:59;-3.40;99.90
53653;DHT22;39553;52.954;5.932;2023-03-01T05:44:26;-1.90;99.90
53653;DHT22;39553;52.954;5.932;2023-03-01T05:46:52;-1.40;99.90
53653;DHT22;39553;52.954;5.932;2023-03-01T05:49:25;-4.20;99.90
53653;DHT22;39553;52.954;5.932;2023-03-01T05:54:21;-3.40;99.90
53653;DHT22;39553;52.954;5.932;2023-03-01T05:56:47;-1.20;99.90
53653;DHT22;39553;52.954;5.932;2023-03-01T05:59:13;-2.70;99.90
53653;DHT22;39553;52.954;5.932;2023-03-01T06:01:42;-2.30;99.90
53653;DHT22;39553;52.954;5.932;2023-03-01T06:04:08;-4.10;99.90
53653;DHT22;39553;52.954;5.932;2023-03-01T06:06:37;-1.60;99.90
53653;DHT22;39553;52.954;5.932;2023-03-01T06:09:05;-3.50;99.90
53653;DHT22;39553;52.954;5.932;2023-03-01T06:11:34;-2.70;99.90
53653;DHT22;39553;52.954;5.932;2023-03-01T06:14:00;-0.80;99.90
53653;DHT22;39553;52.954;5.932;2023-03-01T06:16:26;-1.50;99.90
53653;DHT22;39553;52.954;5.932;2023-03-01T06:18:55;-1.60;99.90
53653;DHT22;39553;52.954;5.932;2023-03-01T06:21:20;-1.00;99.90
53653;DHT22;39553;52.954;5.932;2023-03-01T06:23:46;-4.10;99.90
53653;DHT22;39553;52.954;5.932;2023-03-01T06:26:12;-3.60;99.90
53653;DHT22;39553;52.954;5.932;2023-03-01T06:28:38;-3.80;99.90
53653;DHT22;39553;52.954;5.932;2023-03-01T06:31:05;-1.90;99.90
53653;DHT22;39553;52.954;5.932;2023-03-01T06:33:34;-4.40;99.90
53653;DHT22;39553;52.954;5.932;2023-03-01T06:36:00;-4.00;99.90
53653;DHT22;39553;52.954;5.932;2023-03-01T06:38:26;-3.70;99.90
53653;DHT22;39553;52.954;5.932;2023-03-01T06:40:53;-3.70;99.90
53653;DHT22;39553;52.954;5.932;2023-03-01T06:43:21;-3.50;99.90
53653;DHT22;39553;52.954;5.932;2023-03-01T06:45:48;-3.10;99.90
53653;DHT22;39553;52.954;5.932;2023-03-01T06:48:17;-1.20;99.90
53653;DHT22;39553;52.954;5.932;2023-03-01T06:50:46;-4.10;99.90
53653;DHT22;39553;52.954;5.932;2023-03-01T06:53:13;-4.10;99.90
53653;DHT22;39553;52.954;5.932;2023-03-01T06:55:40;-3.30;99.90
53653;DHT22;39553;52.954;5.932;2023-03-01T06:58:08;-1.30;99.90
53653;DHT22;39553;52.954;5.932;2023-03-01T07:00:35;-4.00;99.90
53653;DHT22;39553;52.954;5.932;2023-03-01T07:03:02;-3.70;99.90
53653;DHT22;39553;52.954;5.932;2023-03-01T07:07:55;-3.10;99.90
53653;DHT22;39553;52.954;5.932;2023-03-01T07:10:22;-1.30;99.90
53653;DHT22;39553;52.954;5.932;2023-03-01T07:12:47;-0.10;99.90
53653;DHT22;39553;52.954;5.932;2023-03-01T07:15:13;-0.40;99.90
53653;DHT22;39553;52.954;5.932;2023-03-01T07:17:41;-2.00;99.90
53653;DHT22;39553;52.954;5.932;2023-03-01T07:20:10;-2.20;99.90
53653;DHT22;39553;52.954;5.932;2023-03-01T07:22:40;-2.70;99.90
53653;DHT22;39553;52.954;5.932;2023-03-01T07:25:08;-3.20;99.90
53653;DHT22;39553;52.954;5.932;2023-03-01T07:27:35;-1.70;99.90
53653;DHT22;39553;52.954;5.932;2023-03-01T07:30:03;-1.30;99.90
53653;DHT22;39553;52.954;5.932;2023-03-01T07:32:33;-2.90;99.90
53653;DHT22;39553;52.954;5.932;2023-03-01T07:35:00;-0.40;99.90
53653;DHT22;39553;52.954;5.932;2023-03-01T07:37:31;-2.10;99.90
53653;DHT22;39553;52.954;5.932;2023-03-01T07:40:07;0.40;99.90
53653;DHT22;39553;52.954;5.932;2023-03-01T07:42:34;-2.20;99.90
53653;DHT22;39553;52.954;5.932;2023-03-01T07:45:06;-0.60;99.90
53653;DHT22;39553;52.954;5.932;2023-03-01T07:47:32;-1.50;99.90
53653;DHT22;39553;52.954;5.932;2023-03-01T07:49:58;0.20;99.90
53653;DHT22;39553;52.954;5.932;2023-03-01T07:52:24;-0.30;99.90
53653;DHT22;39553;52.954;5.932;2023-03-01T07:54:50;-0.90;99.90
53653;DHT22;39553;52.954;5.932;2023-03-01T07:57:16;-1.70;99.90
53653;DHT22;39553;52.954;5.932;2023-03-01T07:59:42;0.00;99.90
53653;DHT22;39553;52.954;5.932;2023-03-01T08:02:11;-0.30;99.90
53653;DHT22;39553;52.954;5.932;2023-03-01T08:04:37;-1.70;99.90
53653;DHT22;39553;52.954;5.932;2023-03-01T08:07:05;0.20;99.90
53653;DHT22;39553;52.954;5.932;2023-03-01T08:09:33;-1.50;99.90
53653;DHT22;39553;52.954;5.932;2023-03-01T08:12:12;-0.80;99.90
53653;DHT22;39553;52.954;5.932;2023-03-01T08:14:38;0.90;99.90
53653;DHT22;39553;52.954;5.932;2023-03-01T08:17:04;-0.90;99.90
53653;DHT22;39553;52.954;5.932;2023-03-01T08:19:30;0.40;99.90
53653;DHT22;39553;52.954;5.932;2023-03-01T08:22:03;-0.40;99.90
53653;DHT22;39553;52.954;5.932;2023-03-01T08:24:29;1.70;99.90
53653;DHT22;39553;52.954;5.932;2023-03-01T08:26:55;1.50;99.90
53653;DHT22;39553;52.954;5.932;2023-03-01T08:29:21;-0.10;99.90
53653;DHT22;39553;52.954;5.932;2023-03-01T08:31:48;0.50;99.90
53653;DHT22;39553;52.954;5.932;2023-03-01T08:34:15;1.00;99.90
53653;DHT22;39553;52.954;5.932;2023-03-01T08:36:44;0.20;99.90
53653;DHT22;39553;52.954;5.932;2023-03-01T08:39:15;-1.40;99.90
53653;DHT22;39553;52.954;5.932;2023-03-01T08:41:41;0.50;99.90
53653;DHT22;39553;52.954;5.932;2023-03-01T08:44:09;0.60;99.90
53653;DHT22;39553;52.954;5.932;2023-03-01T08:46:37;0.20;99.90
53653;DHT22;39553;52.954;5.932;2023-03-01T08:49:08;3.40;99.90
53653;DHT22;39553;52.954;5.932;2023-03-01T08:51:34;1.00;99.90
53653;DHT22;39553;52.954;5.932;2023-03-01T08:54:13;3.30;99.90
53653;DHT22;39553;52.954;5.932;2023-03-01T08:56:40;2.50;99.90
53653;DHT22;39553;52.954;5.932;2023-03-01T08:59:06;1.80;99.90
53653;DHT22;39553;52.954;5.932;2023-03-01T09:01:32;3.40;99.90
53653;DHT22;39553;52.954;5.932;2023-03-01T09:03:58;1.70;99.90
53653;DHT22;39553;52.954;5.932;2023-03-01T09:06:24;1.90;99.90
53653;DHT22;39553;52.954;5.932;2023-03-01T09:08:50;4.30;99.90
53653;DHT22;39553;52.954;5.932;2023-03-01T09:11:18;4.20;99.90
53653;DHT22;39553;52.954;5.932;2023-03-01T09:13:45;5.40;99.90
53653;DHT22;39553;52.954;5.932;2023-03-01T09:16:13;4.60;99.90
53653;DHT22;39553;52.954;5.932;2023-03-01T09:18:39;7.20;99.90
53653;DHT22;39553;52.954;5.932;2023-03-01T09:21:11;6.50;99.90
53653;DHT22;39553;52.954;5.932;2023-03-01T09:23:43;7.30;99.90
53653;DHT22;39553;52.954;5.932;2023-03-01T09:26:12;8.00;99.90
53653;DHT22;39553;52.954;5.932;2023-03-01T09:28:39;8.30;99.90
53653;DHT22;39553;52.954;5.932;2023-03-01T09:31:06;8.70;99.90
53653;DHT22;39553;52.954;5.932;2023-03-01T09:33:33;9.10;99.90
53653;DHT22;39553;52.954;5.932;2023-03-01T09:36:01;9.60;99.90
53653;DHT22;39553;52.954;5.932;2023-03-01T09:38:27;9.80;99.90
53653;DHT22;39553;52.954;5.932;2023-03-01T09:40:54;10.10;99.90
53653;DHT22;39553;52.954;5.932;2023-03-01T09:43:41;10.40;99.90
53653;DHT22;39553;52.954;5.932;2023-03-01T09:46:11;10.50;99.90
53653;DHT22;39553;52.954;5.932;2023-03-01T09:49:21;10.60;99.90
53653;DHT22;39553;52.954;5.932;2023-03-01T09:54:41;10.80;99.90
53653;DHT22;39553;52.954;5.932;2023-03-01T09:57:26;10.90;99.90
53653;DHT22;39553;52.954;5.932;2023-03-01T10:03:08;11.30;99.90
53653;DHT22;39553;52.954;5.932;2023-03-01T10:08:53;11.40;99.90
53653;DHT22;39553;52.954;5.932;2023-03-01T10:11:21;11.20;99.90
53653;DHT22;39553;52.954;5.932;2023-03-01T10:16:54;12.20;99.90
53653;DHT22;39553;52.954;5.932;2023-03-01T10:19:29;12.50;99.90
53653;DHT22;39553;52.954;5.932;2023-03-01T10:22:03;12.80;99.90
53653;DHT22;39553;52.954;5.932;2023-03-01T10:24:33;13.00;99.90
53653;DHT22;39553;52.954;5.932;2023-03-01T10:27:09;13.20;99.90
53653;DHT22;39553;52.954;5.932;2023-03-01T10:29:50;13.50;99.90
53653;DHT22;39553;52.954;5.932;2023-03-01T10:32:18;13.60;97.50
53653;DHT22;39553;52.954;5.932;2023-03-01T10:34:46;13.50;99.90
53653;DHT22;39553;52.954;5.932;2023-03-01T10:37:17;13.50;99.90
53653;DHT22;39553;52.954;5.932;2023-03-01T10:40:08;13.70;98.70
53653;DHT22;39553;52.954;5.932;2023-03-01T10:42:46;13.80;95.80
53653;DHT22;39553;52.954;5.932;2023-03-01T10:48:24;13.60;97.10
53653;DHT22;39553;52.954;5.932;2023-03-01T10:53:35;12.90;96.10
53653;DHT22;39553;52.954;5.932;2023-03-01T10:56:13;12.40;95.20
53653;DHT22;39553;52.954;5.932;2023-03-01T10:58:55;11.90;95.10
53653;DHT22;39553;52.954;5.932;2023-03-01T11:01:31;11.60;97.10
53653;DHT22;39553;52.954;5.932;2023-03-01T11:06:33;11.40;96.10
53653;DHT22;39553;52.954;5.932;2023-03-01T11:09:20;11.00;96.60
53653;DHT22;39553;52.954;5.932;2023-03-01T11:11:56;10.50;94.30
53653;DHT22;39553;52.954;5.932;2023-03-01T11:14:39;9.90;96.10
53653;DHT22;39553;52.954;5.932;2023-03-01T11:17:30;9.60;96.00
53653;DHT22;39553;52.954;5.932;2023-03-01T11:20:24;9.50;96.30
53653;DHT22;39553;52.954;5.932;2023-03-01T11:23:00;9.50;96.40
53653;DHT22;39553;52.954;5.932;2023-03-01T11:25:31;9.50;96.90
53653;DHT22;39553;52.954;5.932;2023-03-01T11:27:59;9.50;97.20
53653;DHT22;39553;52.954;5.932;2023-03-01T11:36:35;9.10;97.00
53653;DHT22;39553;52.954;5.932;2023-03-01T11:39:08;9.10;96.30
53653;DHT22;39553;52.954;5.932;2023-03-01T11:41:40;8.80;96.80
53653;DHT22;39553;52.954;5.932;2023-03-01T11:44:28;8.70;97.00
53653;DHT22;39553;52.954;5.932;2023-03-01T11:47:16;8.40;96.60
53653;DHT22;39553;52.954;5.932;2023-03-01T12:06:22;9.40;95.20
53653;DHT22;39553;52.954;5.932;2023-03-01T12:09:31;9.30;95.30
53653;DHT22;39553;52.954;5.932;2023-03-01T12:20:51;8.70;96.40
53653;DHT22;39553;52.954;5.932;2023-03-01T12:26:22;9.80;95.90
53653;DHT22;39553;52.954;5.932;2023-03-01T12:31:42;10.50;95.50
53653;DHT22;39553;52.954;5.932;2023-03-01T12:51:07;10.60;92.90
53653;DHT22;39553;52.954;5.932;2023-03-01T12:53:40;10.10;94.30
53653;DHT22;39553;52.954;5.932;2023-03-01T12:56:12;10.00;94.70
53653;DHT22;39553;52.954;5.932;2023-03-01T12:58:41;10.30;95.00
53653;DHT22;39553;52.954;5.932;2023-03-01T13:01:26;10.20;93.40
53653;DHT22;39553;52.954;5.932;2023-03-01T13:04:23;10.80;94.10
53653;DHT22;39553;52.954;5.932;2023-03-01T13:20:50;9.10;94.40
53653;DHT22;39553;52.954;5.932;2023-03-01T13:30:58;9.90;94.80
53653;DHT22;39553;52.954;5.932;2023-03-01T13:35:56;10.60;93.70
53653;DHT22;39553;52.954;5.932;2023-03-01T13:41:07;10.70;93.30
53653;DHT22;39553;52.954;5.932;2023-03-01T13:43:38;11.00;93.50
53653;DHT22;39553;52.954;5.932;2023-03-01T13:46:23;11.00;93.20
53653;DHT22;39553;52.954;5.932;2023-03-01T13:48:52;11.30;92.80
53653;DHT22;39553;52.954;5.932;2023-03-01T13:51:26;10.90;93.50
53653;DHT22;39553;52.954;5.932;2023-03-01T13:53:54;10.80;93.30
53653;DHT22;39553;52.954;5.932;2023-03-01T13:56:27;10.80;93.60
53653;DHT22;39553;52.954;5.932;2023-03-01T13:58:58;10.90;93.40
53653;DHT22;39553;52.954;5.932;2023-03-01T14:01:33;11.10;93.50
53653;DHT22;39553;52.954;5.932;2023-03-01T14:04:00;10.70;91.10
53653;DHT22;39553;52.954;5.932;2023-03-01T14:06:31;10.80;93.10
53653;DHT22;39553;52.954;5.932;2023-03-01T14:09:20;11.10;93.50
53653;DHT22;39553;52.954;5.932;2023-03-01T14:18:24;11.80;92.50
53653;DHT22;39553;52.954;5.932;2023-03-01T14:20:52;11.50;90.40
53653;DHT22;39553;52.954;5.932;2023-03-01T14:23:21;11.20;92.30
53653;DHT22;39553;52.954;5.932;2023-03-01T14:25:50;11.20;92.60
53653;DHT22;39553;52.954;5.932;2023-03-01T14:28:17;11.20;92.50
53653;DHT22;39553;52.954;5.932;2023-03-01T14:30:51;11.30;92.70
53653;DHT22;39553;52.954;5.932;2023-03-01T14:33:30;11.30;92.50
53653;DHT22;39553;52.954;5.932;2023-03-01T14:36:08;11.10;92.00
53653;DHT22;39553;52.954;5.932;2023-03-01T14:38:39;10.90;93.00
53653;DHT22;39553;52.954;5.932;2023-03-01T14:41:14;10.40;92.90
53653;DHT22;39553;52.954;5.932;2023-03-01T14:43:44;9.70;93.00
53653;DHT22;39553;52.954;5.932;2023-03-01T14:46:34;9.40;94.20
53653;DHT22;39553;52.954;5.932;2023-03-01T14:49:31;8.90;94.40
53653;DHT22;39553;52.954;5.932;2023-03-01T14:52:18;8.60;94.90
53653;DHT22;39553;52.954;5.932;2023-03-01T14:54:48;8.40;95.60
53653;DHT22;39553;52.954;5.932;2023-03-01T14:57:20;7.80;95.70
53653;DHT22;39553;52.954;5.932;2023-03-01T14:59:48;8.10;96.40
53653;DHT22;39553;52.954;5.932;2023-03-01T15:02:18;8.20;97.20
53653;DHT22;39553;52.954;5.932;2023-03-01T15:04:54;8.20;97.20
53653;DHT22;39553;52.954;5.932;2023-03-01T15:07:24;8.20;96.80
53653;DHT22;39553;52.954;5.932;2023-03-01T15:09:52;8.10;96.80
53653;DHT22;39553;52.954;5.932;2023-03-01T15:14:53;8.30;97.30
53653;DHT22;39553;52.954;5.932;2023-03-01T15:17:33;8.30;97.30
53653;DHT22;39553;52.954;5.932;2023-03-01T15:20:15;8.40;97.10
53653;DHT22;39553;52.954;5.932;2023-03-01T15:22:44;8.50;97.50
53653;DHT22;39553;52.954;5.932;2023-03-01T15:25:18;8.50;97.40
53653;DHT22;39553;52.954;5.932;2023-03-01T15:27:49;8.40;96.50
53653;DHT22;39553;52.954;5.932;2023-03-01T15:30:29;8.40;97.40
53653;DHT22;39553;52.954;5.932;2023-03-01T15:35:56;8.60;98.20
53653;DHT22;39553;52.954;5.932;2023-03-01T15:40:51;8.80;97.80
53653;DHT22;39553;52.954;5.932;2023-03-01T15:43:56;8.90;97.40
53653;DHT22;39553;52.954;5.932;2023-03-01T15:46:31;9.00;97.30
53653;DHT22;39553;52.954;5.932;2023-03-01T15:49:00;9.20;97.70
53653;DHT22;39553;52.954;5.932;2023-03-01T15:51:53;9.40;97.40
53653;DHT22;39553;52.954;5.932;2023-03-01T15:54:22;9.20;97.10
53653;DHT22;39553;52.954;5.932;2023-03-01T15:56:49;9.20;98.10
53653;DHT22;39553;52.954;5.932;2023-03-01T15:59:15;9.70;98.00
53653;DHT22;39553;52.954;5.932;2023-03-01T16:01:41;10.10;97.30
53653;DHT22;39553;52.954;5.932;2023-03-01T16:04:13;10.40;97.00
53653;DHT22;39553;52.954;5.932;2023-03-01T16:06:49;10.60;96.80
53653;DHT22;39553;52.954;5.932;2023-03-01T16:09:23;10.70;96.40
53653;DHT22;39553;52.954;5.932;2023-03-01T16:11:50;10.50;96.10
53653;DHT22;39553;52.954;5.932;2023-03-01T16:14:16;10.60;96.50
53653;DHT22;39553;52.954;5.932;2023-03-01T16:16:43;10.70;96.30
53653;DHT22;39553;52.954;5.932;2023-03-01T16:19:09;10.80;96.40
53653;DHT22;39553;52.954;5.932;2023-03-01T16:21:36;10.90;96.50
53653;DHT22;39553;52.954;5.932;2023-03-01T16:24:02;11.00;96.50
53653;DHT22;39553;52.954;5.932;2023-03-01T16:26:28;11.00;96.60
53653;DHT22;39553;52.954;5.932;2023-03-01T16:28:57;11.00;96.70
53653;DHT22;39553;52.954;5.932;2023-03-01T16:31:23;10.90;96.80
53653;DHT22;39553;52.954;5.932;2023-03-01T16:33:54;10.70;96.70
53653;DHT22;39553;52.954;5.932;2023-03-01T16:36:23;10.20;96.80
53653;DHT22;39553;52.954;5.932;2023-03-01T16:38:50;9.20;97.20
53653;DHT22;39553;52.954;5.932;2023-03-01T16:41:18;8.80;98.20
53653;DHT22;39553;52.954;5.932;2023-03-01T16:43:44;8.20;99.30
53653;DHT22;39553;52.954;5.932;2023-03-01T16:46:23;7.80;99.90
53653;DHT22;39553;52.954;5.932;2023-03-01T16:48:50;7.50;99.90
53653;DHT22;39553;52.954;5.932;2023-03-01T16:51:16;7.20;99.90
53653;DHT22;39553;52.954;5.932;2023-03-01T16:53:42;7.00;99.90
53653;DHT22;39553;52.954;5.932;2023-03-01T16:56:09;6.80;99.90
53653;DHT22;39553;52.954;5.932;2023-03-01T16:58:36;6.60;99.90
53653;DHT22;39553;52.954;5.932;2023-03-01T17:01:28;6.40;99.90
53653;DHT22;39553;52.954;5.932;2023-03-01T17:04:03;6.70;99.90
53653;DHT22;39553;52.954;5.932;2023-03-01T17:06:29;6.30;99.90
53653;DHT22;39553;52.954;5.932;2023-03-01T17:08:56;5.90;99.90
53653;DHT22;39553;52.954;5.932;2023-03-01T17:11:22;5.70;99.90
53653;DHT22;39553;52.954;5.932;2023-03-01T17:13:47;5.70;99.90
53653;DHT22;39553;52.954;5.932;2023-03-01T17:16:16;6.10;99.90
53653;DHT22;39553;52.954;5.932;2023-03-01T17:18:42;5.40;99.90
53653;DHT22;39553;52.954;5.932;2023-03-01T17:21:08;6.20;99.90
53653;DHT22;39553;52.954;5.932;2023-03-01T17:23:36;6.10;99.90
53653;DHT22;39553;52.954;5.932;2023-03-01T17:26:03;5.10;99.90
53653;DHT22;39553;52.954;5.932;2023-03-01T17:28:30;5.10;99.90
53653;DHT22;39553;52.954;5.932;2023-03-01T17:30:58;5.40;99.90
53653;DHT22;39553;52.954;5.932;2023-03-01T17:33:25;4.90;99.90
53653;DHT22;39553;52.954;5.932;2023-03-01T17:35:51;4.80;99.90
53653;DHT22;39553;52.954;5.932;2023-03-01T17:38:17;4.70;99.90
53653;DHT22;39553;52.954;5.932;2023-03-01T17:40:44;4.50;99.90
53653;DHT22;39553;52.954;5.932;2023-03-01T17:43:14;4.50;99.90
53653;DHT22;39553;52.954;5.932;2023-03-01T17:45:41;5.10;99.90
53653;DHT22;39553;52.954;5.932;2023-03-01T17:48:09;4.30;99.90
53653;DHT22;39553;52.954;5.932;2023-03-01T17:50:36;4.30;99.90
53653;DHT22;39553;52.954;5.932;2023-03-01T17:53:03;4.10;99.90
53653;DHT22;39553;52.954;5.932;2023-03-01T17:55:37;4.00;99.90
53653;DHT22;39553;52.954;5.932;2023-03-01T17:58:04;4.10;99.90
53653;DHT22;39553;52.954;5.932;2023-03-01T18:00:30;4.00;99.90
53653;DHT22;39553;52.954;5.932;2023-03-01T18:02:56;4.20;99.90
53653;DHT22;39553;52.954;5.932;2023-03-01T18:05:22;4.00;99.90
53653;DHT22;39553;52.954;5.932;2023-03-01T18:07:50;4.00;99.90
53653;DHT22;39553;52.954;5.932;2023-03-01T18:10:17;3.90;99.90
53653;DHT22;39553;52.954;5.932;2023-03-01T18:12:42;3.90;99.90
53653;DHT22;39553;52.954;5.932;2023-03-01T18:15:08;4.90;99.90